sensor_id;sensor_type;location;lat;lon;timestamp;P1;durP1;ratioP1;P2;durP2;ratioP2
15693;SDS011;7947;48.834;9.132;2023-06-10T00:01:08;4.82;;;4.32;;
15693;SDS011;7947;48.834;9.132;2023-06-10T00:04:11;5.82;;;4.43;;
15693;SDS011;7947;48.834;9.132;2023-06-10T00:07:14;5.22;;;4.72;;
15693;SDS011;7947;48.834;9.132;2023-06-10T00:10:17;7.78;;;5.38;;
15693;SDS011;7947;48.834;9.132;2023-06-10T00:13:21;6.25;;;4.43;;
15693;SDS011;7947;48.834;9.132;2023-06-10T00:16:23;4.63;;;4.15;;
15693;SDS011;7947;48.834;9.132;2023-06-10T00:19:26;5.03;;;4.30;;
15693;SDS011;7947;48.834;9.132;2023-06-10T00:22:31;4.75;;;4.35;;
15693;SDS011;7947;48.834;9.132;2023-06-10T00:25:34;5.20;;;4.15;;
15693;SDS011;7947;48.834;9.132;2023-06-10T00:28:38;5.13;;;4.50;;
15693;SDS011;7947;48.834;9.132;2023-06-10T00:31:41;4.72;;;4.18;;
15693;SDS011;7947;48.834;9.132;2023-06-10T00:34:44;5.40;;;4.90;;
15693;SDS011;7947;48.834;9.132;2023-06-10T00:37:46;5.22;;;4.40;;
15693;SDS011;7947;48.834;9.132;2023-06-10T00:40:49;4.93;;;4.32;;
15693;SDS011;7947;48.834;9.132;2023-06-10T00:43:53;5.50;;;3.67;;
15693;SDS011;7947;48.834;9.132;2023-06-10T00:46:56;5.00;;;4.50;;
15693;SDS011;7947;48.834;9.132;2023-06-10T00:49:59;5.78;;;4.20;;
15693;SDS011;7947;48.834;9.132;2023-06-10T00:53:02;5.15;;;4.38;;
15693;SDS011;7947;48.834;9.132;2023-06-10T00:56:05;6.22;;;5.00;;
15693;SDS011;7947;48.834;9.132;2023-06-10T00:59:09;5.00;;;4.50;;
15693;SDS011;7947;48.834;9.132;2023-06-10T01:02:13;5.63;;;4.75;;
15693;SDS011;7947;48.834;9.132;2023-06-10T01:05:15;5.60;;;4.85;;
15693;SDS011;7947;48.834;9.132;2023-06-10T01:08:20;5.60;;;5.00;;
15693;SDS011;7947;48.834;9.132;2023-06-10T01:11:34;5.32;;;4.65;;
15693;SDS011;7947;48.834;9.132;2023-06-10T01:14:43;5.18;;;4.68;;
15693;SDS011;7947;48.834;9.132;2023-06-10T01:17:53;6.13;;;3.97;;
15693;SDS011;7947;48.834;9.132;2023-06-10T01:20:58;5.65;;;4.63;;
15693;SDS011;7947;48.834;9.132;2023-06-10T01:24:03;4.95;;;4.45;;
15693;SDS011;7947;48.834;9.132;2023-06-10T01:27:11;5.43;;;4.50;;
15693;SDS011;7947;48.834;9.132;2023-06-10T01:30:18;5.00;;;4.38;;
15693;SDS011;7947;48.834;9.132;2023-06-10T01:33:25;6.93;;;4.95;;
15693;SDS011;7947;48.834;9.132;2023-06-10T01:36:32;6.00;;;5.00;;
15693;SDS011;7947;48.834;9.132;2023-06-10T01:39:39;4.72;;;4.32;;
15693;SDS011;7947;48.834;9.132;2023-06-10T01:42:43;5.63;;;4.68;;
15693;SDS011;7947;48.834;9.132;2023-06-10T01:45:45;5.25;;;4.55;;
15693;SDS011;7947;48.834;9.132;2023-06-10T01:48:48;4.95;;;4.22;;
15693;SDS011;7947;48.834;9.132;2023-06-10T01:51:51;4.32;;;3.92;;
15693;SDS011;7947;48.834;9.132;2023-06-10T01:54:55;4.78;;;4.25;;
15693;SDS011;7947;48.834;9.132;2023-06-10T01:57:58;5.30;;;4.80;;
15693;SDS011;7947;48.834;9.132;2023-06-10T02:01:00;4.70;;;4.20;;
15693;SDS011;7947;48.834;9.132;2023-06-10T02:04:03;4.65;;;4.25;;
15693;SDS011;7947;48.834;9.132;2023-06-10T02:07:06;6.97;;;4.25;;
15693;SDS011;7947;48.834;9.132;2023-06-10T02:10:10;4.85;;;4.10;;
15693;SDS011;7947;48.834;9.132;2023-06-10T02:13:13;5.00;;;4.43;;
15693;SDS011;7947;48.834;9.132;2023-06-10T02:16:16;4.72;;;4.30;;
15693;SDS011;7947;48.834;9.132;2023-06-10T02:19:20;4.85;;;4.30;;
15693;SDS011;7947;48.834;9.132;2023-06-10T02:22:23;4.65;;;4.18;;
15693;SDS011;7947;48.834;9.132;2023-06-10T02:25:28;4.97;;;4.10;;
15693;SDS011;7947;48.834;9.132;2023-06-10T02:28:30;5.47;;;4.22;;
15693;SDS011;7947;48.834;9.132;2023-06-10T02:31:33;7.10;;;4.10;;
15693;SDS011;7947;48.834;9.132;2023-06-10T02:34:36;4.97;;;4.43;;
15693;SDS011;7947;48.834;9.132;2023-06-10T02:37:39;5.65;;;4.43;;
15693;SDS011;7947;48.834;9.132;2023-06-10T02:40:43;4.75;;;4.28;;
15693;SDS011;7947;48.834;9.132;2023-06-10T02:43:46;5.20;;;4.60;;
15693;SDS011;7947;48.834;9.132;2023-06-10T02:46:49;5.35;;;4.13;;
15693;SDS011;7947;48.834;9.132;2023-06-10T02:49:51;6.05;;;4.18;;
15693;SDS011;7947;48.834;9.132;2023-06-10T02:52:54;4.32;;;3.92;;
15693;SDS011;7947;48.834;9.132;2023-06-10T02:55:58;4.82;;;4.25;;
15693;SDS011;7947;48.834;9.132;2023-06-10T02:59:01;4.88;;;3.83;;
15693;SDS011;7947;48.834;9.132;2023-06-10T03:02:04;3.95;;;3.63;;
15693;SDS011;7947;48.834;9.132;2023-06-10T03:05:07;4.22;;;3.83;;
15693;SDS011;7947;48.834;9.132;2023-06-10T03:08:12;4.95;;;3.58;;
15693;SDS011;7947;48.834;9.132;2023-06-10T03:11:16;5.13;;;3.35;;
15693;SDS011;7947;48.834;9.132;2023-06-10T03:14:20;4.75;;;4.05;;
15693;SDS011;7947;48.834;9.132;2023-06-10T03:17:23;3.60;;;3.30;;
15693;SDS011;7947;48.834;9.132;2023-06-10T03:20:26;4.25;;;3.72;;
15693;SDS011;7947;48.834;9.132;2023-06-10T03:23:29;5.53;;;4.10;;
15693;SDS011;7947;48.834;9.132;2023-06-10T03:26:34;3.95;;;3.42;;
15693;SDS011;7947;48.834;9.132;2023-06-10T03:29:36;4.13;;;3.38;;
15693;SDS011;7947;48.834;9.132;2023-06-10T03:32:39;4.28;;;3.80;;
15693;SDS011;7947;48.834;9.132;2023-06-10T03:35:43;5.80;;;4.18;;
15693;SDS011;7947;48.834;9.132;2023-06-10T03:38:46;4.20;;;3.80;;
15693;SDS011;7947;48.834;9.132;2023-06-10T03:41:50;5.95;;;4.45;;
15693;SDS011;7947;48.834;9.132;2023-06-10T03:44:53;5.03;;;4.35;;
15693;SDS011;7947;48.834;9.132;2023-06-10T03:47:56;4.47;;;3.80;;
15693;SDS011;7947;48.834;9.132;2023-06-10T03:50:59;5.75;;;4.90;;
15693;SDS011;7947;48.834;9.132;2023-06-10T03:54:01;6.38;;;4.97;;
15693;SDS011;7947;48.834;9.132;2023-06-10T03:57:06;5.15;;;4.20;;
15693;SDS011;7947;48.834;9.132;2023-06-10T04:00:09;5.55;;;4.50;;
15693;SDS011;7947;48.834;9.132;2023-06-10T04:03:13;4.28;;;3.83;;
15693;SDS011;7947;48.834;9.132;2023-06-10T04:06:16;4.80;;;4.10;;
15693;SDS011;7947;48.834;9.132;2023-06-10T04:09:19;6.25;;;3.78;;
15693;SDS011;7947;48.834;9.132;2023-06-10T04:12:23;4.32;;;3.75;;
15693;SDS011;7947;48.834;9.132;2023-06-10T04:15:26;4.47;;;3.70;;
15693;SDS011;7947;48.834;9.132;2023-06-10T04:18:29;4.85;;;3.83;;
15693;SDS011;7947;48.834;9.132;2023-06-10T04:21:31;5.22;;;4.15;;
15693;SDS011;7947;48.834;9.132;2023-06-10T04:24:34;4.72;;;3.97;;
15693;SDS011;7947;48.834;9.132;2023-06-10T04:27:39;4.93;;;4.25;;
15693;SDS011;7947;48.834;9.132;2023-06-10T04:30:41;6.68;;;4.60;;
15693;SDS011;7947;48.834;9.132;2023-06-10T04:33:45;5.05;;;4.55;;
15693;SDS011;7947;48.834;9.132;2023-06-10T04:36:48;4.93;;;4.43;;
15693;SDS011;7947;48.834;9.132;2023-06-10T04:39:52;6.32;;;4.75;;
15693;SDS011;7947;48.834;9.132;2023-06-10T04:42:56;6.25;;;5.13;;
15693;SDS011;7947;48.834;9.132;2023-06-10T04:45:59;4.60;;;4.20;;
15693;SDS011;7947;48.834;9.132;2023-06-10T04:49:01;6.25;;;4.90;;
15693;SDS011;7947;48.834;9.132;2023-06-10T04:52:06;5.60;;;4.40;;
15693;SDS011;7947;48.834;9.132;2023-06-10T04:55:09;5.53;;;5.00;;
15693;SDS011;7947;48.834;9.132;2023-06-10T04:58:14;6.03;;;5.22;;
15693;SDS011;7947;48.834;9.132;2023-06-10T05:01:17;5.30;;;4.50;;
15693;SDS011;7947;48.834;9.132;2023-06-10T05:04:19;5.18;;;4.50;;
15693;SDS011;7947;48.834;9.132;2023-06-10T05:07:22;6.35;;;5.68;;
15693;SDS011;7947;48.834;9.132;2023-06-10T05:10:25;5.85;;;5.03;;
15693;SDS011;7947;48.834;9.132;2023-06-10T05:13:29;5.70;;;5.03;;
15693;SDS011;7947;48.834;9.132;2023-06-10T05:16:32;6.43;;;5.75;;
15693;SDS011;7947;48.834;9.132;2023-06-10T05:19:35;6.25;;;5.18;;
15693;SDS011;7947;48.834;9.132;2023-06-10T05:22:38;4.70;;;4.28;;
15693;SDS011;7947;48.834;9.132;2023-06-10T05:25:42;5.32;;;4.82;;
15693;SDS011;7947;48.834;9.132;2023-06-10T05:28:46;5.85;;;5.22;;
15693;SDS011;7947;48.834;9.132;2023-06-10T05:31:49;5.30;;;4.22;;
15693;SDS011;7947;48.834;9.132;2023-06-10T05:34:52;5.55;;;4.07;;
15693;SDS011;7947;48.834;9.132;2023-06-10T05:37:54;5.25;;;4.47;;
15693;SDS011;7947;48.834;9.132;2023-06-10T05:40:57;5.35;;;4.10;;
15693;SDS011;7947;48.834;9.132;2023-06-10T05:44:02;6.03;;;3.95;;
15693;SDS011;7947;48.834;9.132;2023-06-10T05:47:05;6.25;;;4.25;;
15693;SDS011;7947;48.834;9.132;2023-06-10T05:50:08;4.25;;;3.85;;
15693;SDS011;7947;48.834;9.132;2023-06-10T05:53:12;4.43;;;3.90;;
15693;SDS011;7947;48.834;9.132;2023-06-10T05:56:16;4.75;;;3.72;;
15693;SDS011;7947;48.834;9.132;2023-06-10T05:59:20;4.45;;;3.90;;
15693;SDS011;7947;48.834;9.132;2023-06-10T06:02:24;4.70;;;4.30;;
15693;SDS011;7947;48.834;9.132;2023-06-10T06:05:27;3.85;;;3.40;;
15693;SDS011;7947;48.834;9.132;2023-06-10T06:08:36;4.72;;;3.83;;
15693;SDS011;7947;48.834;9.132;2023-06-10T06:11:38;4.15;;;3.50;;
15693;SDS011;7947;48.834;9.132;2023-06-10T06:14:43;4.32;;;3.22;;
15693;SDS011;7947;48.834;9.132;2023-06-10T06:17:46;5.13;;;3.80;;
15693;SDS011;7947;48.834;9.132;2023-06-10T06:20:49;4.13;;;3.58;;
15693;SDS011;7947;48.834;9.132;2023-06-10T06:23:52;3.80;;;3.45;;
15693;SDS011;7947;48.834;9.132;2023-06-10T06:26:55;4.45;;;3.63;;
15693;SDS011;7947;48.834;9.132;2023-06-10T06:29:59;3.55;;;3.25;;
15693;SDS011;7947;48.834;9.132;2023-06-10T06:33:02;5.03;;;3.85;;
15693;SDS011;7947;48.834;9.132;2023-06-10T06:36:05;5.03;;;3.88;;
15693;SDS011;7947;48.834;9.132;2023-06-10T06:39:08;4.25;;;3.72;;
15693;SDS011;7947;48.834;9.132;2023-06-10T06:42:11;4.93;;;3.90;;
15693;SDS011;7947;48.834;9.132;2023-06-10T06:45:15;3.70;;;3.15;;
15693;SDS011;7947;48.834;9.132;2023-06-10T06:48:18;3.95;;;3.50;;
15693;SDS011;7947;48.834;9.132;2023-06-10T06:51:21;4.32;;;3.40;;
15693;SDS011;7947;48.834;9.132;2023-06-10T06:54:24;6.38;;;3.97;;
15693;SDS011;7947;48.834;9.132;2023-06-10T06:57:27;7.22;;;3.47;;
15693;SDS011;7947;48.834;9.132;2023-06-10T07:00:31;3.78;;;3.38;;
15693;SDS011;7947;48.834;9.132;2023-06-10T07:03:34;4.85;;;3.45;;
15693;SDS011;7947;48.834;9.132;2023-06-10T07:06:37;4.53;;;3.30;;
15693;SDS011;7947;48.834;9.132;2023-06-10T07:09:40;4.00;;;3.58;;
15693;SDS011;7947;48.834;9.132;2023-06-10T07:12:42;4.10;;;3.70;;
15693;SDS011;7947;48.834;9.132;2023-06-10T07:15:47;4.97;;;3.70;;
15693;SDS011;7947;48.834;9.132;2023-06-10T07:18:49;4.95;;;3.70;;
15693;SDS011;7947;48.834;9.132;2023-06-10T07:21:52;4.32;;;3.28;;
15693;SDS011;7947;48.834;9.132;2023-06-10T07:24:55;4.28;;;3.53;;
15693;SDS011;7947;48.834;9.132;2023-06-10T07:27:58;3.33;;;3.03;;
15693;SDS011;7947;48.834;9.132;2023-06-10T07:31:02;3.40;;;3.10;;
15693;SDS011;7947;48.834;9.132;2023-06-10T07:34:05;3.95;;;3.40;;
15693;SDS011;7947;48.834;9.132;2023-06-10T07:37:08;3.58;;;3.10;;
15693;SDS011;7947;48.834;9.132;2023-06-10T07:40:11;3.33;;;3.03;;
15693;SDS011;7947;48.834;9.132;2023-06-10T07:43:14;3.47;;;3.17;;
15693;SDS011;7947;48.834;9.132;2023-06-10T07:46:18;3.55;;;3.25;;
15693;SDS011;7947;48.834;9.132;2023-06-10T07:49:21;3.55;;;3.15;;
15693;SDS011;7947;48.834;9.132;2023-06-10T07:52:24;3.42;;;2.85;;
15693;SDS011;7947;48.834;9.132;2023-06-10T07:55:29;3.35;;;2.90;;
15693;SDS011;7947;48.834;9.132;2023-06-10T07:58:32;3.58;;;3.25;;
15693;SDS011;7947;48.834;9.132;2023-06-10T08:01:36;3.25;;;2.85;;
15693;SDS011;7947;48.834;9.132;2023-06-10T08:04:41;2.97;;;2.67;;
15693;SDS011;7947;48.834;9.132;2023-06-10T08:07:44;3.28;;;2.97;;
15693;SDS011;7947;48.834;9.132;2023-06-10T08:10:47;3.28;;;2.97;;
15693;SDS011;7947;48.834;9.132;2023-06-10T08:13:50;3.05;;;2.83;;
15693;SDS011;7947;48.834;9.132;2023-06-10T08:16:54;3.83;;;3.53;;
15693;SDS011;7947;48.834;9.132;2023-06-10T08:19:57;3.20;;;2.88;;
15693;SDS011;7947;48.834;9.132;2023-06-10T08:23:00;4.47;;;3.17;;
15693;SDS011;7947;48.834;9.132;2023-06-10T08:26:03;3.65;;;2.78;;
15693;SDS011;7947;48.834;9.132;2023-06-10T08:29:06;3.47;;;3.05;;
15693;SDS011;7947;48.834;9.132;2023-06-10T08:32:10;3.35;;;3.05;;
15693;SDS011;7947;48.834;9.132;2023-06-10T08:35:13;3.95;;;3.55;;
15693;SDS011;7947;48.834;9.132;2023-06-10T08:38:16;4.10;;;3.70;;
15693;SDS011;7947;48.834;9.132;2023-06-10T08:41:18;3.90;;;3.50;;
15693;SDS011;7947;48.834;9.132;2023-06-10T08:44:25;3.55;;;3.17;;
15693;SDS011;7947;48.834;9.132;2023-06-10T08:47:32;4.20;;;3.80;;
15693;SDS011;7947;48.834;9.132;2023-06-10T08:50:38;4.63;;;4.03;;
15693;SDS011;7947;48.834;9.132;2023-06-10T08:53:43;4.57;;;3.53;;
15693;SDS011;7947;48.834;9.132;2023-06-10T08:56:55;4.40;;;3.30;;
15693;SDS011;7947;48.834;9.132;2023-06-10T09:00:01;3.88;;;3.30;;
15693;SDS011;7947;48.834;9.132;2023-06-10T09:03:07;4.50;;;3.53;;
15693;SDS011;7947;48.834;9.132;2023-06-10T09:06:10;4.40;;;4.00;;
15693;SDS011;7947;48.834;9.132;2023-06-10T09:09:14;5.78;;;3.60;;
15693;SDS011;7947;48.834;9.132;2023-06-10T09:12:17;4.03;;;3.67;;
15693;SDS011;7947;48.834;9.132;2023-06-10T09:15:20;3.72;;;3.42;;
15693;SDS011;7947;48.834;9.132;2023-06-10T09:18:25;4.18;;;3.47;;
15693;SDS011;7947;48.834;9.132;2023-06-10T09:21:28;3.63;;;3.33;;
15693;SDS011;7947;48.834;9.132;2023-06-10T09:24:31;3.78;;;3.20;;
15693;SDS011;7947;48.834;9.132;2023-06-10T09:27:43;5.22;;;3.47;;
15693;SDS011;7947;48.834;9.132;2023-06-10T09:30:47;3.72;;;2.92;;
15693;SDS011;7947;48.834;9.132;2023-06-10T09:33:51;3.58;;;3.03;;
15693;SDS011;7947;48.834;9.132;2023-06-10T09:36:55;3.30;;;2.97;;
15693;SDS011;7947;48.834;9.132;2023-06-10T09:40:04;3.70;;;3.40;;
15693;SDS011;7947;48.834;9.132;2023-06-10T09:43:10;5.43;;;3.20;;
15693;SDS011;7947;48.834;9.132;2023-06-10T09:46:14;3.42;;;2.95;;
15693;SDS011;7947;48.834;9.132;2023-06-10T09:49:20;3.60;;;3.30;;
15693;SDS011;7947;48.834;9.132;2023-06-10T09:52:23;3.42;;;3.13;;
15693;SDS011;7947;48.834;9.132;2023-06-10T09:55:27;3.33;;;3.03;;
15693;SDS011;7947;48.834;9.132;2023-06-10T09:58:34;3.35;;;3.05;;
15693;SDS011;7947;48.834;9.132;2023-06-10T10:01:38;4.35;;;3.13;;
15693;SDS011;7947;48.834;9.132;2023-06-10T10:04:43;3.10;;;2.78;;
15693;SDS011;7947;48.834;9.132;2023-06-10T10:07:46;3.28;;;2.95;;
15693;SDS011;7947;48.834;9.132;2023-06-10T10:10:49;2.97;;;2.67;;
15693;SDS011;7947;48.834;9.132;2023-06-10T10:13:52;4.28;;;3.45;;
15693;SDS011;7947;48.834;9.132;2023-06-10T10:16:55;3.60;;;2.97;;
15693;SDS011;7947;48.834;9.132;2023-06-10T10:20:02;3.40;;;3.10;;
15693;SDS011;7947;48.834;9.132;2023-06-10T10:23:07;4.57;;;3.17;;
15693;SDS011;7947;48.834;9.132;2023-06-10T10:26:12;3.42;;;3.13;;
15693;SDS011;7947;48.834;9.132;2023-06-10T10:29:16;4.30;;;3.17;;
15693;SDS011;7947;48.834;9.132;2023-06-10T10:32:28;3.72;;;3.13;;
15693;SDS011;7947;48.834;9.132;2023-06-10T10:35:36;3.63;;;3.33;;
15693;SDS011;7947;48.834;9.132;2023-06-10T10:38:39;3.28;;;2.97;;
15693;SDS011;7947;48.834;9.132;2023-06-10T10:41:43;3.20;;;2.90;;
15693;SDS011;7947;48.834;9.132;2023-06-10T10:44:47;3.58;;;3.28;;
15693;SDS011;7947;48.834;9.132;2023-06-10T10:47:52;3.00;;;2.80;;
15693;SDS011;7947;48.834;9.132;2023-06-10T10:50:58;3.00;;;2.72;;
15693;SDS011;7947;48.834;9.132;2023-06-10T10:54:10;3.38;;;3.08;;
15693;SDS011;7947;48.834;9.132;2023-06-10T10:57:15;4.57;;;3.15;;
15693;SDS011;7947;48.834;9.132;2023-06-10T11:00:24;3.97;;;3.03;;
15693;SDS011;7947;48.834;9.132;2023-06-10T11:03:29;4.05;;;3.67;;
15693;SDS011;7947;48.834;9.132;2023-06-10T11:06:34;3.40;;;3.10;;
15693;SDS011;7947;48.834;9.132;2023-06-10T11:09:37;3.47;;;3.17;;
15693;SDS011;7947;48.834;9.132;2023-06-10T11:12:49;3.78;;;2.90;;
15693;SDS011;7947;48.834;9.132;2023-06-10T11:15:57;2.60;;;2.40;;
15693;SDS011;7947;48.834;9.132;2023-06-10T11:19:01;3.20;;;2.90;;
15693;SDS011;7947;48.834;9.132;2023-06-10T11:22:05;3.42;;;3.13;;
15693;SDS011;7947;48.834;9.132;2023-06-10T11:25:13;3.17;;;2.88;;
15693;SDS011;7947;48.834;9.132;2023-06-10T11:28:18;2.65;;;2.45;;
15693;SDS011;7947;48.834;9.132;2023-06-10T11:31:22;3.20;;;2.60;;
15693;SDS011;7947;48.834;9.132;2023-06-10T11:34:26;2.95;;;2.65;;
15693;SDS011;7947;48.834;9.132;2023-06-10T11:37:32;2.97;;;2.60;;
15693;SDS011;7947;48.834;9.132;2023-06-10T11:40:36;2.75;;;2.55;;
15693;SDS011;7947;48.834;9.132;2023-06-10T11:43:40;3.45;;;2.58;;
15693;SDS011;7947;48.834;9.132;2023-06-10T11:46:46;2.90;;;2.60;;
15693;SDS011;7947;48.834;9.132;2023-06-10T11:49:55;3.17;;;2.75;;
15693;SDS011;7947;48.834;9.132;2023-06-10T11:53:00;2.70;;;2.50;;
15693;SDS011;7947;48.834;9.132;2023-06-10T11:56:03;3.83;;;2.85;;
15693;SDS011;7947;48.834;9.132;2023-06-10T11:59:06;3.30;;;2.95;;
15693;SDS011;7947;48.834;9.132;2023-06-10T12:02:14;3.17;;;2.75;;
15693;SDS011;7947;48.834;9.132;2023-06-10T12:05:17;3.42;;;2.53;;
15693;SDS011;7947;48.834;9.132;2023-06-10T12:08:22;2.90;;;2.70;;
15693;SDS011;7947;48.834;9.132;2023-06-10T12:11:25;3.47;;;2.97;;
15693;SDS011;7947;48.834;9.132;2023-06-10T12:17:54;2.65;;;2.45;;
15693;SDS011;7947;48.834;9.132;2023-06-10T12:20:57;2.92;;;2.63;;
15693;SDS011;7947;48.834;9.132;2023-06-10T12:24:06;3.10;;;2.83;;
15693;SDS011;7947;48.834;9.132;2023-06-10T12:27:10;3.30;;;2.67;;
15693;SDS011;7947;48.834;9.132;2023-06-10T12:30:18;2.80;;;2.60;;
15693;SDS011;7947;48.834;9.132;2023-06-10T12:33:22;2.90;;;2.65;;
15693;SDS011;7947;48.834;9.132;2023-06-10T12:36:25;3.35;;;3.05;;
15693;SDS011;7947;48.834;9.132;2023-06-10T12:39:30;3.13;;;2.83;;
15693;SDS011;7947;48.834;9.132;2023-06-10T12:42:34;4.15;;;2.58;;
15693;SDS011;7947;48.834;9.132;2023-06-10T12:45:38;3.15;;;2.90;;
15693;SDS011;7947;48.834;9.132;2023-06-10T12:48:49;4.10;;;2.63;;
15693;SDS011;7947;48.834;9.132;2023-06-10T12:51:53;4.40;;;2.65;;
15693;SDS011;7947;48.834;9.132;2023-06-10T12:54:57;2.78;;;2.47;;
15693;SDS011;7947;48.834;9.132;2023-06-10T12:58:02;2.85;;;2.50;;
15693;SDS011;7947;48.834;9.132;2023-06-10T13:01:04;2.60;;;2.40;;
15693;SDS011;7947;48.834;9.132;2023-06-10T13:04:07;2.53;;;2.30;;
15693;SDS011;7947;48.834;9.132;2023-06-10T13:07:11;2.47;;;2.28;;
15693;SDS011;7947;48.834;9.132;2023-06-10T13:10:15;2.63;;;2.40;;
15693;SDS011;7947;48.834;9.132;2023-06-10T13:13:21;2.50;;;2.30;;
15693;SDS011;7947;48.834;9.132;2023-06-10T13:16:24;2.42;;;2.20;;
15693;SDS011;7947;48.834;9.132;2023-06-10T13:19:27;2.53;;;2.33;;
15693;SDS011;7947;48.834;9.132;2023-06-10T13:22:29;2.15;;;2.05;;
15693;SDS011;7947;48.834;9.132;2023-06-10T13:25:35;2.33;;;2.13;;
15693;SDS011;7947;48.834;9.132;2023-06-10T13:28:37;3.88;;;2.55;;
15693;SDS011;7947;48.834;9.132;2023-06-10T13:31:40;2.60;;;2.28;;
15693;SDS011;7947;48.834;9.132;2023-06-10T13:34:43;2.05;;;1.90;;
15693;SDS011;7947;48.834;9.132;2023-06-10T13:37:46;2.13;;;1.92;;
15693;SDS011;7947;48.834;9.132;2023-06-10T13:40:50;2.55;;;2.35;;
15693;SDS011;7947;48.834;9.132;2023-06-10T13:43:53;2.30;;;2.10;;
15693;SDS011;7947;48.834;9.132;2023-06-10T13:46:56;2.53;;;2.33;;
15693;SDS011;7947;48.834;9.132;2023-06-10T13:49:58;2.45;;;2.25;;
15693;SDS011;7947;48.834;9.132;2023-06-10T13:53:01;2.30;;;2.10;;
15693;SDS011;7947;48.834;9.132;2023-06-10T13:56:06;3.35;;;2.47;;
15693;SDS011;7947;48.834;9.132;2023-06-10T13:59:09;2.33;;;2.13;;
15693;SDS011;7947;48.834;9.132;2023-06-10T14:02:12;3.45;;;2.50;;
15693;SDS011;7947;48.834;9.132;2023-06-10T14:05:15;2.45;;;2.25;;
15693;SDS011;7947;48.834;9.132;2023-06-10T14:08:18;3.08;;;2.72;;
15693;SDS011;7947;48.834;9.132;2023-06-10T14:11:22;2.58;;;2.30;;
15693;SDS011;7947;48.834;9.132;2023-06-10T14:14:25;2.67;;;2.40;;
15693;SDS011;7947;48.834;9.132;2023-06-10T14:17:28;3.05;;;2.75;;
15693;SDS011;7947;48.834;9.132;2023-06-10T14:20:32;4.85;;;3.05;;
15693;SDS011;7947;48.834;9.132;2023-06-10T14:23:34;2.70;;;2.50;;
15693;SDS011;7947;48.834;9.132;2023-06-10T14:26:39;2.70;;;2.50;;
15693;SDS011;7947;48.834;9.132;2023-06-10T14:29:41;2.47;;;2.28;;
15693;SDS011;7947;48.834;9.132;2023-06-10T14:32:44;2.60;;;2.40;;
15693;SDS011;7947;48.834;9.132;2023-06-10T14:35:47;3.42;;;2.50;;
15693;SDS011;7947;48.834;9.132;2023-06-10T14:38:50;2.50;;;2.30;;
15693;SDS011;7947;48.834;9.132;2023-06-10T14:41:54;3.30;;;3.00;;
15693;SDS011;7947;48.834;9.132;2023-06-10T14:44:57;2.65;;;2.45;;
15693;SDS011;7947;48.834;9.132;2023-06-10T14:48:00;2.92;;;2.63;;
15693;SDS011;7947;48.834;9.132;2023-06-10T14:51:02;3.00;;;2.72;;
15693;SDS011;7947;48.834;9.132;2023-06-10T14:54:05;4.05;;;2.50;;
15693;SDS011;7947;48.834;9.132;2023-06-10T14:57:09;2.80;;;2.60;;
15693;SDS011;7947;48.834;9.132;2023-06-10T15:00:12;2.80;;;2.60;;
15693;SDS011;7947;48.834;9.132;2023-06-10T15:03:18;4.80;;;2.90;;
15693;SDS011;7947;48.834;9.132;2023-06-10T15:06:20;3.05;;;2.75;;
15693;SDS011;7947;48.834;9.132;2023-06-10T15:09:24;2.65;;;2.42;;
15693;SDS011;7947;48.834;9.132;2023-06-10T15:12:28;3.08;;;2.80;;
15693;SDS011;7947;48.834;9.132;2023-06-10T15:15:31;3.85;;;3.00;;
15693;SDS011;7947;48.834;9.132;2023-06-10T15:18:33;4.32;;;2.88;;
15693;SDS011;7947;48.834;9.132;2023-06-10T15:21:36;3.17;;;2.95;;
15693;SDS011;7947;48.834;9.132;2023-06-10T15:24:39;2.95;;;2.67;;
15693;SDS011;7947;48.834;9.132;2023-06-10T15:27:43;2.60;;;2.40;;
15693;SDS011;7947;48.834;9.132;2023-06-10T15:30:46;2.53;;;2.33;;
15693;SDS011;7947;48.834;9.132;2023-06-10T15:33:48;3.17;;;2.72;;
15693;SDS011;7947;48.834;9.132;2023-06-10T15:36:51;3.97;;;3.00;;
15693;SDS011;7947;48.834;9.132;2023-06-10T15:39:54;4.22;;;2.78;;
15693;SDS011;7947;48.834;9.132;2023-06-10T15:42:58;2.88;;;2.67;;
15693;SDS011;7947;48.834;9.132;2023-06-10T15:46:01;2.63;;;2.40;;
15693;SDS011;7947;48.834;9.132;2023-06-10T15:49:04;3.10;;;2.80;;
15693;SDS011;7947;48.834;9.132;2023-06-10T15:52:07;2.60;;;2.40;;
15693;SDS011;7947;48.834;9.132;2023-06-10T15:55:10;2.90;;;2.50;;
15693;SDS011;7947;48.834;9.132;2023-06-10T15:58:14;3.63;;;2.88;;
15693;SDS011;7947;48.834;9.132;2023-06-10T16:01:17;3.05;;;2.75;;
15693;SDS011;7947;48.834;9.132;2023-06-10T16:04:20;2.53;;;2.30;;
15693;SDS011;7947;48.834;9.132;2023-06-10T16:07:23;2.58;;;2.38;;
15693;SDS011;7947;48.834;9.132;2023-06-10T16:10:25;2.40;;;2.20;;
15693;SDS011;7947;48.834;9.132;2023-06-10T16:13:29;2.60;;;2.40;;
15693;SDS011;7947;48.834;9.132;2023-06-10T16:16:32;2.50;;;2.20;;
15693;SDS011;7947;48.834;9.132;2023-06-10T16:19:35;2.97;;;2.67;;
15693;SDS011;7947;48.834;9.132;2023-06-10T16:22:40;2.42;;;2.17;;
15693;SDS011;7947;48.834;9.132;2023-06-10T16:25:43;2.40;;;2.20;;
15693;SDS011;7947;48.834;9.132;2023-06-10T16:28:48;2.50;;;2.30;;
15693;SDS011;7947;48.834;9.132;2023-06-10T16:31:51;2.47;;;2.28;;
15693;SDS011;7947;48.834;9.132;2023-06-10T16:34:54;2.25;;;2.05;;
15693;SDS011;7947;48.834;9.132;2023-06-10T16:37:57;2.70;;;2.28;;
15693;SDS011;7947;48.834;9.132;2023-06-10T16:41:03;3.08;;;2.78;;
15693;SDS011;7947;48.834;9.132;2023-06-10T16:44:07;2.72;;;2.50;;
15693;SDS011;7947;48.834;9.132;2023-06-10T16:47:10;2.50;;;2.30;;
15693;SDS011;7947;48.834;9.132;2023-06-10T16:50:13;3.03;;;2.40;;
15693;SDS011;7947;48.834;9.132;2023-06-10T16:53:16;3.03;;;2.72;;
15693;SDS011;7947;48.834;9.132;2023-06-10T16:56:19;2.28;;;2.08;;
15693;SDS011;7947;48.834;9.132;2023-06-10T16:59:23;2.90;;;2.60;;
15693;SDS011;7947;48.834;9.132;2023-06-10T17:02:26;2.60;;;2.40;;
15693;SDS011;7947;48.834;9.132;2023-06-10T17:05:28;2.53;;;2.20;;
15693;SDS011;7947;48.834;9.132;2023-06-10T17:08:31;2.53;;;2.30;;
15693;SDS011;7947;48.834;9.132;2023-06-10T17:11:34;2.38;;;2.17;;
15693;SDS011;7947;48.834;9.132;2023-06-10T17:14:38;2.33;;;2.13;;
15693;SDS011;7947;48.834;9.132;2023-06-10T17:17:40;1.88;;;1.73;;
15693;SDS011;7947;48.834;9.132;2023-06-10T17:20:43;3.75;;;2.58;;
15693;SDS011;7947;48.834;9.132;2023-06-10T17:23:46;2.30;;;2.10;;
15693;SDS011;7947;48.834;9.132;2023-06-10T17:26:49;2.25;;;2.00;;
15693;SDS011;7947;48.834;9.132;2023-06-10T17:29:53;2.65;;;2.20;;
15693;SDS011;7947;48.834;9.132;2023-06-10T17:32:56;2.30;;;2.10;;
15693;SDS011;7947;48.834;9.132;2023-06-10T17:35:59;2.47;;;2.22;;
15693;SDS011;7947;48.834;9.132;2023-06-10T17:39:01;2.60;;;2.40;;
15693;SDS011;7947;48.834;9.132;2023-06-10T17:42:04;2.75;;;2.55;;
15693;SDS011;7947;48.834;9.132;2023-06-10T17:45:10;3.03;;;2.80;;
15693;SDS011;7947;48.834;9.132;2023-06-10T17:48:13;2.83;;;2.50;;
15693;SDS011;7947;48.834;9.132;2023-06-10T17:51:16;3.47;;;2.47;;
15693;SDS011;7947;48.834;9.132;2023-06-10T17:54:19;2.90;;;2.45;;
15693;SDS011;7947;48.834;9.132;2023-06-10T17:57:21;3.17;;;2.88;;
15693;SDS011;7947;48.834;9.132;2023-06-10T18:00:26;2.90;;;2.63;;
15693;SDS011;7947;48.834;9.132;2023-06-10T18:03:28;5.50;;;3.33;;
15693;SDS011;7947;48.834;9.132;2023-06-10T18:06:31;3.50;;;2.88;;
15693;SDS011;7947;48.834;9.132;2023-06-10T18:09:34;2.55;;;2.35;;
15693;SDS011;7947;48.834;9.132;2023-06-10T18:12:37;4.18;;;2.47;;
15693;SDS011;7947;48.834;9.132;2023-06-10T18:15:41;3.70;;;3.00;;
15693;SDS011;7947;48.834;9.132;2023-06-10T18:18:44;3.10;;;2.80;;
15693;SDS011;7947;48.834;9.132;2023-06-10T18:21:47;2.78;;;2.58;;
15693;SDS011;7947;48.834;9.132;2023-06-10T18:24:50;3.13;;;2.75;;
15693;SDS011;7947;48.834;9.132;2023-06-10T18:27:52;2.83;;;2.63;;
15693;SDS011;7947;48.834;9.132;2023-06-10T18:30:57;2.53;;;2.33;;
15693;SDS011;7947;48.834;9.132;2023-06-10T18:34:00;3.15;;;2.85;;
15693;SDS011;7947;48.834;9.132;2023-06-10T18:37:03;3.08;;;2.78;;
15693;SDS011;7947;48.834;9.132;2023-06-10T18:40:08;2.95;;;2.67;;
15693;SDS011;7947;48.834;9.132;2023-06-10T18:43:11;4.20;;;2.95;;
15693;SDS011;7947;48.834;9.132;2023-06-10T18:46:16;3.88;;;3.17;;